createdAt,value
2022-11-08T00:10:21.193Z,10.52
2022-11-08T00:22:21.192Z,10.52
2022-11-08T00:34:21.311Z,10.50
2022-11-08T00:46:21.190Z,10.50
2022-11-08T00:58:27.102Z,10.48
2022-11-08T01:10:21.196Z,10.48
2022-11-08T01:22:21.187Z,10.47
2022-11-08T01:34:21.303Z,10.46
2022-11-08T01:46:21.183Z,10.44
2022-11-08T01:58:21.306Z,10.44
2022-11-08T02:10:21.194Z,10.44
2022-11-08T02:22:21.232Z,10.42
2022-11-08T02:34:21.248Z,10.42
2022-11-08T02:46:21.184Z,10.41
2022-11-08T02:58:21.477Z,10.39
2022-11-08T03:10:21.296Z,10.38
2022-11-08T03:22:21.191Z,10.37
2022-11-08T03:34:21.196Z,10.36
2022-11-08T03:46:21.286Z,10.36
2022-11-08T03:58:21.534Z,10.34
2022-11-08T04:10:21.288Z,10.34
2022-11-08T04:22:21.305Z,10.34
2022-11-08T04:34:21.195Z,10.31
2022-11-08T04:46:21.188Z,10.30
2022-11-08T04:58:21.309Z,10.31
2022-11-08T05:10:21.308Z,10.29
2022-11-08T05:22:21.293Z,10.29
2022-11-08T05:34:21.244Z,10.28
2022-11-08T05:46:21.191Z,10.27
2022-11-08T05:58:21.185Z,10.24
2022-11-08T06:10:21.298Z,10.23
2022-11-08T06:22:21.185Z,10.20
2022-11-08T06:34:21.299Z,10.17
2022-11-08T06:46:21.214Z,10.15
2022-11-08T06:58:21.250Z,10.12
2022-11-08T07:10:21.273Z,10.10
2022-11-08T07:22:21.198Z,10.07
2022-11-08T07:34:21.206Z,10.06
2022-11-08T07:46:21.191Z,10.06
2022-11-08T07:58:21.471Z,10.04
2022-11-08T08:10:21.307Z,10.04
2022-11-08T08:22:21.310Z,10.11
2022-11-08T08:34:21.246Z,10.19
2022-11-08T08:46:21.188Z,10.26
2022-11-08T08:58:21.291Z,10.33
2022-11-08T09:10:21.185Z,10.41
2022-11-08T09:22:21.297Z,10.62
2022-11-08T09:34:21.843Z,10.73
2022-11-08T09:46:21.192Z,10.78
2022-11-08T09:58:21.203Z,10.66
2022-11-08T10:10:21.315Z,10.66
2022-11-08T10:22:21.185Z,10.63
2022-11-08T10:34:21.310Z,10.64
2022-11-08T10:46:21.187Z,10.63
2022-11-08T10:58:21.293Z,10.62
2022-11-08T11:10:21.302Z,10.62
2022-11-08T11:22:21.304Z,10.61
2022-11-08T11:34:21.260Z,10.62
2022-11-08T11:46:21.231Z,10.62
2022-11-08T11:58:21.391Z,10.62
2022-11-08T12:10:21.278Z,10.62
2022-11-08T12:22:21.188Z,10.61
2022-11-08T12:34:21.195Z,10.59
2022-11-08T12:46:21.189Z,10.60
2022-11-08T12:58:21.190Z,10.60
2022-11-08T13:10:21.243Z,10.58
2022-11-08T13:22:21.190Z,10.58
2022-11-08T13:34:21.195Z,10.57
2022-11-08T13:46:21.191Z,10.56
2022-11-08T13:58:21.189Z,10.55
2022-11-08T14:10:21.283Z,10.53
2022-11-08T14:22:21.186Z,10.53
2022-11-08T14:34:21.289Z,10.52
2022-11-08T14:46:21.196Z,10.51
2022-11-08T14:58:21.565Z,10.48
2022-11-08T15:10:21.191Z,10.49
2022-11-08T15:22:21.193Z,10.47
2022-11-08T15:34:21.265Z,10.46
2022-11-08T15:46:21.297Z,10.45
2022-11-08T15:58:21.549Z,10.43
2022-11-08T16:10:21.293Z,10.42
2022-11-08T16:22:21.263Z,10.40
2022-11-08T16:34:21.318Z,10.40
2022-11-08T16:46:21.197Z,10.39
2022-11-08T16:58:21.317Z,10.38
2022-11-08T17:10:21.270Z,10.38
2022-11-08T17:22:21.282Z,10.36
2022-11-08T17:34:21.204Z,10.35
2022-11-08T17:46:21.189Z,10.35
2022-11-08T17:58:21.192Z,10.34
2022-11-08T18:10:21.309Z,10.34
2022-11-08T18:22:22.298Z,10.32
2022-11-08T18:34:21.261Z,10.31
2022-11-08T18:46:21.194Z,10.30
2022-11-08T18:58:21.308Z,10.29
2022-11-08T19:10:21.296Z,10.27
2022-11-08T19:22:21.258Z,10.25
2022-11-08T19:34:21.296Z,10.23
2022-11-08T19:46:21.196Z,10.21
2022-11-08T19:58:21.419Z,10.17
2022-11-08T20:10:21.248Z,10.13
2022-11-08T20:22:21.290Z,10.07
2022-11-08T20:34:21.313Z,10.02
2022-11-08T20:46:21.190Z,9.97
2022-11-08T20:58:21.396Z,9.88
2022-11-08T21:22:21.263Z,9.69
2022-11-08T21:34:21.299Z,9.59
2022-11-08T21:46:21.186Z,9.48
2022-11-08T21:58:21.408Z,9.23
2022-11-08T22:10:21.275Z,8.93
2022-11-08T22:22:21.187Z,8.77
2022-11-08T22:34:21.202Z,8.77
2022-11-08T22:46:21.197Z,8.77
2022-11-08T22:58:21.284Z,8.77
2022-11-08T23:10:21.195Z,8.77
2022-11-08T23:22:21.191Z,8.77
2022-11-08T23:34:21.313Z,8.77
2022-11-08T23:46:21.187Z,8.77
2022-11-08T23:58:21.187Z,8.77
